createdAt,value
2023-04-29T00:01:15.975Z,8.40
2023-04-29T00:03:43.000Z,8.70
2023-04-29T00:06:11.544Z,8.65
2023-04-29T00:08:38.508Z,8.20
2023-04-29T00:11:05.384Z,7.65
2023-04-29T00:13:32.269Z,8.43
2023-04-29T00:15:59.140Z,9.60
2023-04-29T00:18:25.974Z,9.35
2023-04-29T00:20:52.738Z,8.45
2023-04-29T00:23:19.908Z,8.80
2023-04-29T00:25:46.650Z,9.18
2023-04-29T00:28:13.569Z,9.27
2023-04-29T00:30:40.573Z,9.27
2023-04-29T00:33:07.495Z,8.98
2023-04-29T00:35:34.641Z,9.35
2023-04-29T00:38:01.417Z,8.75
2023-04-29T00:40:29.140Z,9.82
2023-04-29T00:42:56.076Z,9.82
2023-04-29T00:45:23.771Z,9.00
2023-04-29T00:47:50.556Z,9.95
2023-04-29T00:50:17.454Z,9.45
2023-04-29T00:52:44.994Z,10.02
2023-04-29T00:55:15.850Z,9.95
2023-04-29T00:57:42.800Z,9.88
2023-04-29T01:00:10.293Z,10.73
2023-04-29T01:02:37.617Z,10.45
2023-04-29T01:05:04.883Z,10.90
2023-04-29T01:08:04.226Z,10.18
2023-04-29T01:10:40.671Z,10.30
2023-04-29T01:13:17.817Z,9.20
2023-04-29T01:15:56.405Z,10.38
2023-04-29T01:18:29.741Z,9.75
2023-04-29T01:20:58.267Z,9.73
2023-04-29T01:23:29.430Z,9.80
2023-04-29T01:25:57.167Z,9.65
2023-04-29T01:28:39.083Z,9.82
2023-04-29T01:31:23.345Z,10.07
2023-04-29T01:34:16.324Z,10.07
2023-04-29T01:37:18.791Z,9.65
2023-04-29T01:40:10.515Z,10.30
2023-04-29T01:42:46.115Z,9.52
2023-04-29T01:45:21.477Z,10.02
2023-04-29T01:47:51.190Z,10.00
2023-04-29T01:50:17.972Z,10.18
2023-04-29T01:52:44.977Z,11.07
2023-04-29T01:55:11.815Z,10.07
2023-04-29T01:57:38.589Z,10.82
2023-04-29T02:00:06.331Z,10.38
2023-04-29T02:02:33.172Z,10.77
2023-04-29T02:05:00.340Z,10.52
2023-04-29T02:07:27.569Z,10.70
2023-04-29T02:09:54.517Z,10.27
2023-04-29T02:12:21.484Z,10.90
2023-04-29T02:14:48.229Z,9.73
2023-04-29T02:17:14.999Z,11.15
2023-04-29T02:19:41.835Z,10.18
2023-04-29T02:22:09.200Z,10.57
2023-04-29T02:24:36.600Z,10.25
2023-04-29T02:27:05.785Z,10.55
2023-04-29T02:29:33.320Z,10.80
2023-04-29T02:32:00.125Z,10.68
2023-04-29T02:34:26.985Z,9.63
2023-04-29T02:36:53.826Z,11.25
2023-04-29T02:39:20.709Z,10.43
2023-04-29T02:41:47.572Z,10.48
2023-04-29T02:44:14.397Z,11.00
2023-04-29T02:46:45.250Z,11.02
2023-04-29T02:49:13.996Z,11.48
2023-04-29T02:51:41.377Z,11.25
2023-04-29T02:54:08.397Z,11.40
2023-04-29T02:56:35.221Z,12.02
2023-04-29T02:59:01.967Z,11.02
2023-04-29T03:01:29.125Z,11.13
2023-04-29T03:03:56.431Z,10.93
2023-04-29T03:06:23.391Z,11.65
2023-04-29T03:08:50.500Z,11.27
2023-04-29T03:11:17.284Z,11.18
2023-04-29T03:13:44.068Z,12.43
2023-04-29T03:16:10.913Z,11.55
2023-04-29T03:18:37.749Z,11.75
2023-04-29T03:21:04.749Z,12.75
2023-04-29T03:23:31.538Z,11.88
2023-04-29T03:25:58.652Z,12.38
2023-04-29T03:28:25.466Z,10.18
2023-04-29T03:30:52.274Z,11.70
2023-04-29T03:33:19.460Z,12.60
2023-04-29T03:35:46.212Z,11.80
2023-04-29T03:38:12.983Z,12.18
2023-04-29T03:40:40.342Z,11.82
2023-04-29T03:43:09.293Z,11.88
2023-04-29T03:45:36.061Z,11.77
2023-04-29T03:48:03.615Z,11.75
2023-04-29T03:50:30.485Z,11.52
2023-04-29T03:52:57.800Z,11.95
2023-04-29T03:55:24.656Z,11.30
2023-04-29T03:57:51.474Z,12.45
2023-04-29T04:00:18.438Z,11.93
2023-04-29T04:02:46.156Z,12.23
2023-04-29T04:05:13.184Z,11.65
2023-04-29T04:07:40.255Z,11.40
2023-04-29T04:10:07.540Z,11.30
2023-04-29T04:12:34.317Z,10.25
2023-04-29T04:15:01.147Z,11.32
2023-04-29T04:17:27.917Z,11.43
2023-04-29T04:19:54.878Z,11.93
2023-04-29T04:22:21.857Z,11.68
2023-04-29T04:24:48.817Z,12.60
2023-04-29T04:27:15.685Z,11.98
2023-04-29T04:29:42.697Z,11.30
2023-04-29T04:32:09.578Z,12.63
2023-04-29T04:34:39.251Z,11.88
2023-04-29T04:37:06.693Z,11.18
2023-04-29T04:39:33.469Z,11.50
2023-04-29T04:42:00.332Z,12.57
2023-04-29T04:44:27.150Z,11.43
2023-04-29T04:46:53.970Z,12.05
2023-04-29T04:49:20.820Z,11.30
2023-04-29T04:51:47.557Z,12.45
2023-04-29T04:54:14.365Z,12.70
2023-04-29T04:56:41.195Z,13.02
2023-04-29T04:59:08.387Z,12.85
2023-04-29T05:01:35.421Z,12.73
2023-04-29T05:04:03.215Z,13.60
2023-04-29T05:06:30.201Z,12.80
2023-04-29T05:08:57.000Z,12.38
2023-04-29T05:11:23.836Z,13.00
2023-04-29T05:13:50.731Z,12.88
2023-04-29T05:16:18.129Z,12.48
2023-04-29T05:18:45.711Z,12.50
2023-04-29T05:21:13.848Z,13.13
2023-04-29T05:23:41.858Z,12.05
2023-04-29T05:26:09.566Z,11.30
2023-04-29T05:28:36.399Z,11.90
2023-04-29T05:31:03.465Z,11.52
2023-04-29T05:33:30.366Z,11.27
2023-04-29T05:35:57.196Z,11.50
2023-04-29T05:38:28.896Z,10.75
2023-04-29T05:40:56.544Z,11.63
2023-04-29T05:43:23.724Z,11.70
2023-04-29T05:45:50.535Z,11.23
2023-04-29T05:48:17.534Z,10.98
2023-04-29T05:50:45.761Z,10.30
2023-04-29T05:53:12.718Z,10.13
2023-04-29T05:55:40.610Z,9.80
2023-04-29T05:58:07.422Z,9.57
2023-04-29T06:00:34.232Z,9.95
2023-04-29T06:03:01.331Z,9.10
2023-04-29T06:05:28.805Z,8.85
2023-04-29T06:07:55.980Z,8.77
2023-04-29T06:10:22.757Z,8.52
2023-04-29T06:12:51.538Z,8.25
2023-04-29T06:15:18.488Z,8.45
2023-04-29T06:17:45.372Z,7.32
2023-04-29T06:20:12.925Z,8.05
2023-04-29T06:22:39.680Z,7.82
2023-04-29T06:25:07.145Z,7.40
2023-04-29T06:27:33.954Z,7.93
2023-04-29T06:30:00.777Z,7.35
2023-04-29T06:32:27.597Z,7.68
2023-04-29T06:34:54.523Z,7.32
2023-04-29T06:37:21.348Z,7.40
2023-04-29T06:39:48.269Z,7.15
2023-04-29T06:42:15.165Z,7.35
2023-04-29T06:44:41.991Z,6.63
2023-04-29T06:47:08.850Z,6.97
2023-04-29T06:49:35.650Z,7.22
2023-04-29T06:52:02.758Z,6.50
2023-04-29T06:54:29.634Z,6.40
2023-04-29T06:56:58.083Z,6.50
2023-04-29T06:59:24.877Z,6.03
2023-04-29T07:01:52.327Z,5.65
2023-04-29T07:04:19.236Z,6.47
2023-04-29T07:06:47.001Z,6.40
2023-04-29T07:09:14.733Z,5.68
2023-04-29T07:11:41.996Z,5.93
2023-04-29T07:14:09.000Z,5.57
2023-04-29T07:16:35.859Z,5.43
2023-04-29T07:19:02.776Z,5.05
2023-04-29T07:21:31.235Z,4.70
2023-04-29T07:24:00.727Z,4.40
2023-04-29T08:18:31.033Z,4.40
2023-04-29T08:20:57.827Z,4.13
2023-04-29T08:23:24.632Z,3.58
2023-04-29T08:25:52.273Z,3.28
2023-04-29T08:28:19.688Z,4.10
2023-04-29T08:30:46.684Z,3.40
2023-04-29T08:33:15.260Z,3.40
2023-04-29T08:35:42.898Z,3.35
2023-04-29T08:38:10.214Z,3.22
2023-04-29T08:40:45.829Z,3.30
2023-04-29T08:43:15.608Z,3.38
2023-04-29T08:45:43.828Z,3.67
2023-04-29T08:48:10.966Z,3.20
2023-04-29T08:50:40.796Z,3.53
2023-04-29T08:53:09.799Z,3.53
2023-04-29T08:55:42.648Z,3.40
2023-04-29T08:58:11.282Z,3.50
2023-04-29T09:00:39.660Z,2.80
2023-04-29T09:03:32.557Z,3.33
2023-04-29T09:06:02.079Z,3.30
2023-04-29T09:08:30.097Z,3.25
2023-04-29T09:10:58.038Z,3.30
2023-04-29T09:13:31.031Z,5.03
2023-04-29T09:18:51.768Z,5.10
2023-04-29T09:23:55.690Z,3.38
2023-04-29T09:26:24.154Z,3.25
2023-04-29T09:29:13.926Z,3.22
2023-04-29T09:31:42.063Z,3.60
2023-04-29T09:34:09.932Z,2.83
2023-04-29T09:36:47.827Z,3.40
2023-04-29T09:39:23.564Z,3.78
2023-04-29T09:41:53.377Z,3.53
2023-04-29T09:44:29.942Z,3.22
2023-04-29T09:47:04.956Z,3.08
2023-04-29T09:49:35.849Z,2.72
2023-04-29T09:52:06.067Z,2.97
2023-04-29T09:54:36.712Z,3.08
2023-04-29T09:57:09.125Z,3.67
2023-04-29T09:59:40.627Z,3.42
2023-04-29T10:02:20.579Z,3.58
2023-04-29T10:04:57.322Z,3.50
2023-04-29T10:07:26.969Z,3.72
2023-04-29T10:09:55.105Z,3.80
2023-04-29T10:12:22.274Z,3.42
2023-04-29T10:15:04.158Z,3.85
2023-04-29T10:17:46.475Z,4.82
2023-04-29T10:20:24.634Z,3.92
2023-04-29T10:22:56.480Z,4.20
2023-04-29T10:25:24.967Z,3.92
2023-04-29T10:27:54.863Z,4.47
2023-04-29T10:30:23.307Z,4.22
2023-04-29T10:32:52.819Z,4.72
2023-04-29T10:35:23.623Z,4.78
2023-04-29T10:37:53.160Z,4.03
2023-04-29T10:40:31.123Z,5.00
2023-04-29T10:42:59.685Z,4.50
2023-04-29T10:45:35.678Z,3.88
2023-04-29T10:48:24.507Z,4.25
2023-04-29T10:50:51.638Z,3.95
2023-04-29T10:53:21.225Z,3.67
2023-04-29T10:55:56.221Z,3.63
2023-04-29T10:58:46.996Z,3.35
2023-04-29T11:01:18.016Z,3.10
2023-04-29T11:03:55.380Z,3.60
2023-04-29T11:06:48.868Z,3.30
2023-04-29T11:09:29.678Z,3.28
2023-04-29T11:12:03.633Z,3.15
2023-04-29T11:14:38.938Z,3.20
2023-04-29T11:17:16.576Z,3.80
2023-04-29T11:19:50.474Z,3.88
2023-04-29T11:22:22.955Z,3.53
2023-04-29T11:25:11.674Z,3.15
2023-04-29T11:27:40.472Z,2.85
2023-04-29T11:30:08.827Z,3.45
2023-04-29T11:32:40.555Z,3.08
2023-04-29T11:35:14.586Z,3.15
2023-04-29T11:37:43.947Z,3.25
2023-04-29T11:40:12.232Z,2.60
2023-04-29T11:42:48.297Z,2.83
2023-04-29T11:45:19.041Z,2.50
2023-04-29T11:47:48.229Z,2.45
2023-04-29T11:50:19.553Z,2.35
2023-04-29T11:52:47.777Z,2.22
2023-04-29T11:55:14.867Z,2.40
2023-04-29T11:57:42.034Z,2.30
2023-04-29T12:00:14.210Z,2.28
2023-04-29T12:02:46.286Z,2.40
2023-04-29T12:05:15.848Z,2.67
2023-04-29T12:07:43.540Z,2.00
2023-04-29T12:10:12.150Z,2.20
2023-04-29T12:12:42.369Z,2.35
2023-04-29T12:15:10.777Z,2.63
2023-04-29T12:17:38.643Z,3.08
2023-04-29T12:20:09.145Z,2.75
2023-04-29T12:22:36.649Z,3.30
2023-04-29T12:25:04.634Z,2.80
2023-04-29T12:27:32.899Z,2.60
2023-04-29T12:29:59.728Z,2.47
2023-04-29T12:32:26.689Z,3.08
2023-04-29T12:34:53.812Z,3.00
2023-04-29T12:37:23.577Z,3.47
2023-04-29T12:39:51.325Z,2.67
2023-04-29T12:42:18.853Z,3.38
2023-04-29T12:44:50.214Z,2.83
2023-04-29T12:47:17.931Z,2.00
2023-04-29T12:49:46.712Z,1.95
2023-04-29T12:52:14.267Z,2.05
2023-04-29T12:54:43.395Z,1.92
2023-04-29T12:57:11.886Z,2.10
2023-04-29T12:59:39.774Z,2.20
2023-04-29T13:02:06.737Z,1.67
2023-04-29T13:04:33.964Z,1.92
2023-04-29T13:07:02.532Z,1.65
2023-04-29T13:09:30.581Z,1.58
2023-04-29T13:11:57.821Z,1.60
2023-04-29T13:14:25.097Z,1.60
2023-04-29T13:16:52.202Z,1.80
2023-04-29T13:19:36.307Z,1.40
2023-04-29T13:22:06.672Z,1.75
2023-04-29T13:24:36.010Z,2.00
2023-04-29T13:27:05.917Z,1.67
2023-04-29T13:29:33.223Z,1.70
2023-04-29T13:32:00.607Z,1.45
2023-04-29T13:34:27.480Z,1.38
2023-04-29T13:36:54.364Z,1.65
2023-04-29T13:39:23.278Z,1.50
2023-04-29T13:41:50.225Z,1.60
2023-04-29T13:46:47.738Z,1.80
2023-04-29T13:57:36.922Z,1.52
2023-04-29T13:59:44.765Z,2.00
2023-04-29T14:04:48.097Z,1.77
2023-04-29T14:07:15.452Z,1.70
2023-04-29T14:09:42.656Z,1.77
2023-04-29T14:12:09.784Z,1.90
2023-04-29T14:14:36.829Z,2.15
2023-04-29T14:17:03.871Z,1.80
2023-04-29T14:19:31.923Z,2.17
2023-04-29T14:21:59.387Z,2.10
2023-04-29T14:24:26.408Z,2.33
2023-04-29T14:26:53.478Z,1.88
2023-04-29T14:29:21.727Z,2.25
2023-04-29T14:31:48.912Z,1.90
2023-04-29T14:34:15.921Z,1.50
2023-04-29T14:36:44.341Z,1.35
2023-04-29T14:39:13.480Z,1.50
2023-04-29T14:41:40.602Z,1.83
2023-04-29T14:44:07.642Z,1.90
2023-04-29T14:46:34.752Z,1.55
2023-04-29T14:49:01.861Z,1.85
2023-04-29T14:51:29.582Z,1.60
2023-04-29T14:53:57.053Z,1.50
2023-04-29T14:56:24.730Z,2.08
2023-04-29T14:58:52.477Z,1.70
2023-04-29T15:01:19.457Z,1.50
2023-04-29T15:03:46.779Z,1.90
2023-04-29T15:06:14.616Z,1.88
2023-04-29T15:08:42.227Z,1.55
2023-04-29T15:11:09.401Z,1.60
2023-04-29T15:13:36.598Z,3.40
2023-04-29T15:16:04.425Z,2.40
2023-04-29T15:18:31.631Z,6.38
2023-04-29T15:20:59.128Z,5.82
2023-04-29T15:23:26.133Z,3.50
2023-04-29T15:25:54.257Z,3.25
2023-04-29T15:28:23.086Z,3.10
2023-04-29T15:30:50.778Z,3.78
2023-04-29T15:33:18.276Z,2.00
2023-04-29T15:35:45.338Z,2.08
2023-04-29T15:38:13.231Z,2.40
2023-04-29T15:40:40.226Z,2.78
2023-04-29T15:43:07.399Z,3.08
2023-04-29T15:45:34.262Z,2.88
2023-04-29T15:48:01.185Z,2.50
2023-04-29T15:50:28.410Z,2.50
2023-04-29T15:52:56.580Z,2.38
2023-04-29T15:55:23.597Z,2.20
2023-04-29T15:57:51.492Z,2.30
2023-04-29T16:00:19.114Z,2.30
2023-04-29T16:02:46.032Z,1.90
2023-04-29T16:05:13.975Z,1.92
2023-04-29T16:07:41.145Z,2.00
2023-04-29T16:10:08.269Z,2.10
2023-04-29T16:12:35.085Z,1.60
2023-04-29T16:15:01.908Z,1.80
2023-04-29T16:17:29.593Z,1.67
2023-04-29T16:19:56.839Z,1.50
2023-04-29T16:22:24.151Z,1.60
2023-04-29T16:24:51.036Z,1.48
2023-04-29T16:27:18.607Z,1.42
2023-04-29T16:29:45.600Z,1.52
2023-04-29T16:32:12.686Z,1.50
2023-04-29T16:34:39.862Z,1.60
2023-04-29T16:37:12.282Z,1.50
2023-04-29T16:39:40.788Z,1.50
2023-04-29T16:42:08.052Z,1.73
2023-04-29T16:44:34.944Z,2.10
2023-04-29T16:47:03.001Z,1.67
2023-04-29T16:49:31.426Z,1.77
2023-04-29T16:51:58.801Z,1.73
2023-04-29T16:54:27.727Z,1.92
2023-04-29T16:56:54.816Z,1.70
2023-04-29T16:59:21.792Z,1.42
2023-04-29T17:01:48.833Z,1.55
2023-04-29T17:04:15.807Z,1.70
2023-04-29T17:06:43.462Z,1.50
2023-04-29T17:09:10.486Z,1.85
2023-04-29T17:11:37.467Z,1.92
2023-04-29T17:14:04.425Z,1.98
2023-04-29T17:16:31.378Z,2.33
2023-04-29T17:18:59.052Z,2.03
2023-04-29T17:21:26.147Z,2.10
2023-04-29T17:23:53.342Z,2.22
2023-04-29T17:26:21.278Z,2.20
2023-04-29T17:28:48.354Z,2.10
2023-04-29T17:31:15.551Z,1.98
2023-04-29T17:33:54.630Z,1.90
2023-04-29T17:36:25.044Z,2.00
2023-04-29T17:38:52.232Z,2.03
2023-04-29T17:41:19.019Z,2.30
2023-04-29T17:43:47.192Z,2.00
2023-04-29T17:46:14.143Z,2.45
2023-04-29T17:48:41.107Z,2.00
2023-04-29T17:51:08.017Z,2.10
2023-04-29T17:57:41.873Z,2.60
2023-04-29T18:00:09.651Z,2.83
2023-04-29T18:02:37.302Z,2.50
2023-04-29T18:05:04.678Z,3.70
2023-04-29T18:07:31.489Z,3.20
2023-04-29T18:09:58.659Z,10.07
2023-04-29T18:12:25.728Z,15.88
2023-04-29T18:14:52.544Z,22.90
2023-04-29T18:17:20.138Z,29.67
2023-04-29T18:19:49.482Z,18.38
2023-04-29T18:22:16.705Z,12.40
2023-04-29T18:24:43.657Z,15.95
2023-04-29T18:27:10.667Z,12.02
2023-04-29T18:29:37.488Z,6.90
2023-04-29T18:32:07.245Z,7.40
2023-04-29T18:34:35.057Z,6.97
2023-04-29T18:37:02.036Z,5.80
2023-04-29T18:39:28.933Z,11.35
2023-04-29T18:41:56.107Z,7.00
2023-04-29T18:44:22.966Z,6.05
2023-04-29T18:46:50.156Z,6.30
2023-04-29T18:49:18.070Z,5.50
2023-04-29T18:51:46.786Z,5.45
2023-04-29T18:54:19.052Z,5.80
2023-04-29T18:56:48.520Z,5.83
2023-04-29T18:59:19.150Z,6.28
2023-04-29T19:01:47.861Z,5.72
2023-04-29T19:04:15.755Z,5.78
2023-04-29T19:06:43.222Z,6.22
2023-04-29T19:09:14.394Z,6.38
2023-04-29T19:11:41.381Z,6.90
2023-04-29T19:14:08.593Z,6.20
2023-04-29T19:16:37.270Z,5.93
2023-04-29T19:19:04.657Z,6.13
2023-04-29T19:21:33.265Z,6.22
2023-04-29T19:24:00.365Z,6.20
2023-04-29T19:26:27.290Z,6.38
2023-04-29T19:28:54.089Z,6.00
2023-04-29T19:31:21.470Z,5.75
2023-04-29T19:33:48.694Z,5.70
2023-04-29T19:36:15.610Z,5.85
2023-04-29T19:38:42.451Z,6.70
2023-04-29T19:41:09.555Z,6.45
2023-04-29T19:43:36.372Z,6.30
2023-04-29T19:46:03.385Z,6.07
2023-04-29T19:48:30.835Z,6.75
2023-04-29T19:50:59.569Z,6.03
2023-04-29T19:53:29.986Z,6.10
2023-04-29T19:55:57.034Z,5.78
2023-04-29T19:58:23.880Z,5.65
2023-04-29T20:00:50.975Z,5.88
2023-04-29T20:03:17.972Z,7.00
2023-04-29T20:05:44.798Z,6.13
2023-04-29T20:08:11.637Z,6.20
2023-04-29T20:10:38.518Z,6.30
2023-04-29T20:13:05.563Z,6.50
2023-04-29T20:15:32.517Z,6.43
2023-04-29T20:17:59.668Z,5.88
2023-04-29T20:20:27.170Z,6.03
2023-04-29T20:22:58.028Z,6.35
2023-04-29T20:25:25.919Z,6.28
2023-04-29T20:27:53.779Z,6.40
2023-04-29T20:30:21.647Z,5.32
2023-04-29T20:32:48.755Z,5.80
2023-04-29T20:35:16.511Z,6.22
2023-04-29T20:37:43.436Z,6.25
2023-04-29T20:40:11.660Z,6.18
2023-04-29T20:42:38.651Z,5.75
2023-04-29T20:45:07.192Z,5.93
2023-04-29T20:47:35.416Z,6.28
2023-04-29T20:50:04.537Z,7.43
2023-04-29T20:52:31.707Z,5.78
2023-04-29T20:54:58.792Z,5.82
2023-04-29T20:57:25.814Z,6.97
2023-04-29T20:59:52.837Z,6.20
2023-04-29T21:02:20.458Z,6.80
2023-04-29T21:04:47.530Z,7.22
2023-04-29T21:07:14.493Z,6.32
2023-04-29T21:09:41.296Z,7.28
2023-04-29T21:12:08.221Z,7.00
2023-04-29T21:14:35.741Z,7.40
2023-04-29T21:17:02.582Z,7.57
2023-04-29T21:19:29.803Z,6.75
2023-04-29T21:21:56.774Z,7.38
2023-04-29T21:24:24.128Z,6.70
2023-04-29T21:26:51.046Z,6.28
2023-04-29T21:29:17.851Z,6.57
2023-04-29T21:31:44.690Z,5.55
2023-04-29T21:34:11.634Z,6.20
2023-04-29T21:36:38.457Z,6.38
2023-04-29T21:39:06.365Z,7.13
2023-04-29T21:41:40.234Z,6.78
2023-04-29T21:44:07.629Z,6.57
2023-04-29T21:46:35.756Z,6.93
2023-04-29T21:49:03.893Z,6.60
2023-04-29T21:51:31.935Z,6.22
2023-04-29T21:53:58.786Z,6.45
2023-04-29T21:56:25.888Z,5.78
2023-04-29T21:58:53.168Z,6.22
2023-04-29T22:01:38.715Z,6.20
2023-04-29T22:04:06.043Z,6.15
2023-04-29T22:06:34.374Z,6.40
2023-04-29T22:09:01.756Z,6.63
2023-04-29T22:11:29.158Z,6.28
2023-04-29T22:13:56.334Z,6.38
2023-04-29T22:16:26.110Z,6.55
2023-04-29T22:18:53.177Z,6.55
2023-04-29T22:21:20.405Z,7.50
2023-04-29T22:23:47.381Z,7.20
2023-04-29T22:26:14.304Z,6.85
2023-04-29T22:28:41.189Z,6.68
2023-04-29T22:31:08.037Z,7.03
2023-04-29T22:33:35.401Z,6.80
2023-04-29T22:36:03.737Z,6.90
2023-04-29T22:38:30.796Z,6.40
2023-04-29T22:40:57.722Z,6.30
2023-04-29T22:43:24.625Z,6.13
2023-04-29T22:45:56.385Z,6.28
2023-04-29T22:48:26.665Z,5.97
2023-04-29T22:50:59.402Z,5.82
2023-04-29T22:53:26.801Z,5.53
2023-04-29T22:55:58.336Z,5.75
2023-04-29T22:58:26.249Z,5.93
2023-04-29T23:00:57.770Z,5.72
2023-04-29T23:03:25.937Z,5.45
2023-04-29T23:05:59.606Z,5.53
2023-04-29T23:08:27.521Z,6.45
2023-04-29T23:10:54.594Z,6.28
2023-04-29T23:13:21.711Z,6.95
2023-04-29T23:15:48.797Z,6.72
2023-04-29T23:18:16.426Z,7.45
2023-04-29T23:20:47.765Z,8.10
2023-04-29T23:23:14.756Z,7.78
2023-04-29T23:25:42.596Z,6.90
2023-04-29T23:28:09.813Z,7.35
2023-04-29T23:30:37.472Z,7.88
2023-04-29T23:33:04.479Z,7.85
2023-04-29T23:35:31.696Z,7.60
2023-04-29T23:37:58.594Z,8.10
2023-04-29T23:40:25.502Z,7.60
2023-04-29T23:42:52.595Z,7.65
2023-04-29T23:45:19.532Z,7.20
2023-04-29T23:47:46.449Z,6.80
2023-04-29T23:50:13.398Z,7.32
2023-04-29T23:52:40.339Z,7.38
2023-04-29T23:55:08.223Z,6.90
2023-04-29T23:57:34.986Z,7.40
